Time;durP1;ratioP1;P1;durP2;ratioP2;P2;SDS_P1;SDS_P2;PMS_P1;PMS_P2;Temp;Humidity;BMP_temperature;BMP_pressure;BME280_temperature;BME280_humidity;BME280_pressure;Samples;Min_cycle;Max_cycle;Signal;HPM_P1;HPM_P2
2023/01/25 00:02:22;;;;;;;31.05;16.13;;;1.70;99.90;;;;;;5023124;28;20095;-73
2023/01/25 00:04:47;;;;;;;34.58;17.52;;;1.80;99.90;;;;;;5024414;28;20034;-74
2023/01/25 00:07:13;;;;;;;33.65;18.08;;;1.70;99.90;;;;;;5041362;28;20413;-74
2023/01/25 00:09:39;;;;;;;33.72;16.75;;;1.60;99.90;;;;;;5007503;28;20029;-74
2023/01/25 00:12:05;;;;;;;31.65;16.48;;;1.60;99.90;;;;;;5040214;28;20120;-75
2023/01/25 00:14:30;;;;;;;32.13;15.63;;;1.60;99.90;;;;;;5025650;28;20040;-73
2023/01/25 00:16:56;;;;;;;32.00;16.60;;;1.60;99.90;;;;;;5045165;28;20033;-73
2023/01/25 00:19:22;;;;;;;39.95;18.38;;;1.60;99.90;;;;;;5044249;28;20044;-73
2023/01/25 00:21:48;;;;;;;33.85;17.38;;;1.60;99.90;;;;;;5040554;28;20030;-72
2023/01/25 00:24:14;;;;;;;31.00;17.83;;;1.60;99.90;;;;;;5025280;28;20501;-73
2023/01/25 00:26:42;;;;;;;34.35;18.27;;;1.60;99.90;;;;;;5024479;28;20030;-74
2023/01/25 00:29:12;;;;;;;33.90;16.50;;;1.60;99.90;;;;;;5044265;28;20025;-75
2023/01/25 00:32:01;;;;;;;31.37;16.37;;;1.60;99.90;;;;;;5046586;28;20630;-74
2023/01/25 00:34:28;;;;;;;31.00;17.10;;;1.60;99.90;;;;;;5037804;28;20033;-74
2023/01/25 00:37:01;;;;;;;34.28;17.50;;;1.60;99.90;;;;;;5027486;28;20049;-74
2023/01/25 00:39:28;;;;;;;31.20;17.40;;;1.60;99.90;;;;;;5023468;28;20029;-74
2023/01/25 00:41:54;;;;;;;36.60;18.35;;;1.60;99.90;;;;;;5041909;28;20033;-74
2023/01/25 00:44:20;;;;;;;35.67;17.48;;;1.60;99.90;;;;;;5041843;28;20037;-74
2023/01/25 00:46:46;;;;;;;39.10;19.30;;;1.60;99.90;;;;;;5027118;28;20030;-74
2023/01/25 00:49:21;;;;;;;35.40;18.58;;;1.40;99.90;;;;;;5025372;28;20044;-73
2023/01/25 00:51:48;;;;;;;38.63;19.42;;;1.40;99.90;;;;;;5025680;28;20041;-74
2023/01/25 00:54:14;;;;;;;36.88;18.67;;;1.40;99.90;;;;;;5030329;28;20117;-73
2023/01/25 00:56:39;;;;;;;32.88;17.17;;;1.50;99.90;;;;;;5032294;28;20053;-75
2023/01/25 00:59:05;;;;;;;34.58;17.90;;;1.50;99.90;;;;;;5029287;28;20060;-76
2023/01/25 01:01:32;;;;;;;39.60;19.65;;;1.50;99.90;;;;;;5011643;28;20663;-74
2023/01/25 01:03:58;;;;;;;34.72;17.83;;;1.50;99.90;;;;;;5026505;28;20056;-74
2023/01/25 01:06:24;;;;;;;32.83;17.25;;;1.40;99.90;;;;;;5028651;28;20111;-74
2023/01/25 01:08:49;;;;;;;33.03;17.67;;;1.40;99.90;;;;;;5028707;28;20389;-76
2023/01/25 01:11:15;;;;;;;36.17;18.50;;;1.30;99.90;;;;;;5040512;28;20033;-74
2023/01/25 01:13:41;;;;;;;36.53;18.02;;;1.40;99.90;;;;;;5027939;28;20034;-74
2023/01/25 01:16:10;;;;;;;35.47;19.10;;;1.30;99.90;;;;;;5029834;28;20029;-74
2023/01/25 01:18:42;;;;;;;35.28;17.77;;;1.40;99.90;;;;;;5046051;28;20375;-75
2023/01/25 01:21:08;;;;;;;31.27;18.00;;;1.30;99.90;;;;;;5028395;28;20050;-75
2023/01/25 01:23:35;;;;;;;37.40;18.15;;;1.30;99.90;;;;;;5043687;28;20026;-76
2023/01/25 01:26:02;;;;;;;33.13;16.88;;;1.30;99.90;;;;;;5024063;28;20059;-78
2023/01/25 01:28:29;;;;;;;34.97;17.77;;;1.30;99.90;;;;;;5020121;28;20281;-74
2023/01/25 01:31:04;;;;;;;34.33;16.80;;;1.20;99.90;;;;;;5041092;28;20075;-74
2023/01/25 01:33:30;;;;;;;37.78;18.38;;;1.20;99.90;;;;;;5025036;28;20037;-74
2023/01/25 01:35:56;;;;;;;36.97;18.20;;;1.10;99.90;;;;;;5033513;28;20030;-74
2023/01/25 01:38:21;;;;;;;31.65;17.13;;;1.10;99.90;;;;;;5051703;28;20104;-74
2023/01/25 01:40:48;;;;;;;31.65;16.50;;;1.10;99.90;;;;;;5024110;28;20512;-74
2023/01/25 01:43:22;;;;;;;27.48;14.15;;;1.10;99.90;;;;;;5026080;28;20022;-73
2023/01/25 01:45:47;;;;;;;31.08;14.93;;;1.10;99.90;;;;;;5028260;28;20029;-74
2023/01/25 01:48:22;;;;;;;26.98;15.07;;;1.10;99.90;;;;;;5044175;28;20033;-76
2023/01/25 01:50:52;;;;;;;29.48;14.35;;;1.10;99.90;;;;;;5032772;28;20396;-73
2023/01/25 01:53:19;;;;;;;29.27;14.25;;;1.10;99.90;;;;;;5043118;28;20389;-74
2023/01/25 01:55:46;;;;;;;28.20;14.85;;;1.10;99.90;;;;;;5027705;28;20029;-74
2023/01/25 01:58:12;;;;;;;29.83;14.70;;;1.10;99.90;;;;;;5043316;28;20060;-80
2023/01/25 02:00:40;;;;;;;30.42;16.67;;;1.10;99.90;;;;;;5027071;28;20037;-74
2023/01/25 02:03:08;;;;;;;29.13;15.30;;;1.10;99.90;;;;;;5024246;28;20029;-80
2023/01/25 02:05:54;;;;;;;28.58;15.32;;;1.10;99.90;;;;;;5027708;28;20031;-74
2023/01/25 02:08:21;;;;;;;25.42;13.15;;;1.00;99.90;;;;;;5030358;28;20021;-74
2023/01/25 02:10:48;;;;;;;28.55;14.38;;;1.00;99.90;;;;;;5031934;28;20100;-73
2023/01/25 02:13:15;;;;;;;30.23;14.93;;;1.00;99.90;;;;;;5046574;28;20056;-74
2023/01/25 02:15:45;;;;;;;30.30;14.70;;;1.00;99.90;;;;;;5045291;28;20037;-74
2023/01/25 02:18:12;;;;;;;31.42;15.30;;;0.90;99.90;;;;;;5028596;28;20101;-75
2023/01/25 02:20:40;;;;;;;25.88;13.68;;;1.00;99.90;;;;;;5027991;28;20048;-75
2023/01/25 02:23:33;;;;;;;25.95;13.23;;;1.00;99.90;;;;;;5028316;28;20036;-75
2023/01/25 02:26:02;;;;;;;27.15;13.98;;;1.00;99.90;;;;;;5043881;28;20037;-74
2023/01/25 02:28:48;;;;;;;27.67;13.52;;;0.90;99.90;;;;;;5027616;28;20036;-74
2023/01/25 02:31:14;;;;;;;25.33;12.70;;;0.80;99.90;;;;;;5024023;28;20017;-74
2023/01/25 02:33:41;;;;;;;26.48;12.98;;;0.80;99.90;;;;;;5025619;28;20480;-76
2023/01/25 02:36:07;;;;;;;26.13;13.25;;;0.90;99.90;;;;;;5028757;28;20025;-73
2023/01/25 02:38:37;;;;;;;27.67;13.35;;;0.90;99.90;;;;;;5030415;28;20087;-75
2023/01/25 02:41:33;;;;;;;25.83;11.93;;;0.90;99.90;;;;;;5044419;28;20035;-74
2023/01/25 02:44:09;;;;;;;27.65;13.15;;;0.90;99.90;;;;;;5025485;28;20064;-74
2023/01/25 02:46:37;;;;;;;26.10;12.18;;;0.90;99.90;;;;;;5041296;28;20033;-74
2023/01/25 02:49:05;;;;;;;24.52;12.13;;;0.80;99.90;;;;;;5040162;28;20029;-74
2023/01/25 02:51:33;;;;;;;28.05;13.45;;;0.80;99.90;;;;;;5055689;28;20033;-74
2023/01/25 02:54:00;;;;;;;28.92;13.43;;;0.70;99.90;;;;;;5008229;28;20467;-74
2023/01/25 02:56:26;;;;;;;29.52;13.35;;;0.70;99.90;;;;;;5026693;28;21360;-74
2023/01/25 02:58:52;;;;;;;23.73;11.93;;;0.70;99.90;;;;;;5027142;28;20063;-74
2023/01/25 03:01:18;;;;;;;28.02;13.05;;;0.70;99.90;;;;;;5045474;28;20061;-76
2023/01/25 03:03:44;;;;;;;28.35;13.75;;;0.80;99.90;;;;;;5043387;28;20041;-73
2023/01/25 03:06:10;;;;;;;28.55;13.43;;;0.90;99.90;;;;;;5026065;28;20408;-74
2023/01/25 03:08:36;;;;;;;29.90;13.63;;;0.90;99.90;;;;;;5027945;28;20207;-79
2023/01/25 03:11:05;;;;;;;33.17;14.30;;;0.90;99.90;;;;;;5025011;28;20937;-74
2023/01/25 03:13:31;;;;;;;33.75;14.98;;;1.00;99.90;;;;;;5026153;28;20635;-74
2023/01/25 03:15:59;;;;;;;30.05;15.70;;;1.00;99.90;;;;;;5027129;28;20029;-73
2023/01/25 03:18:25;;;;;;;30.73;14.55;;;1.00;99.90;;;;;;5028591;28;20053;-75
2023/01/25 03:20:51;;;;;;;28.52;13.88;;;1.00;99.90;;;;;;5026835;28;20323;-74
2023/01/25 03:23:16;;;;;;;28.83;14.30;;;1.00;99.90;;;;;;5024868;28;20056;-74
2023/01/25 03:25:42;;;;;;;31.73;13.90;;;1.00;99.90;;;;;;5025403;28;20030;-74
2023/01/25 03:28:08;;;;;;;31.50;14.52;;;0.80;99.90;;;;;;5028875;28;20052;-74
2023/01/25 03:30:33;;;;;;;36.92;15.00;;;0.80;99.90;;;;;;5042125;28;20030;-74
2023/01/25 03:32:59;;;;;;;33.53;14.75;;;0.90;99.90;;;;;;5025649;28;20041;-74
2023/01/25 03:35:25;;;;;;;32.78;14.70;;;0.60;99.90;;;;;;5040397;28;20040;-76
2023/01/25 03:37:50;;;;;;;34.05;13.80;;;0.40;99.90;;;;;;5041953;28;20515;-74
2023/01/25 03:40:16;;;;;;;37.03;14.43;;;0.40;99.90;;;;;;5039416;28;20030;-74
2023/01/25 03:42:42;;;;;;;35.97;15.43;;;0.40;99.90;;;;;;5024875;28;20049;-74
2023/01/25 03:45:08;;;;;;;39.25;15.85;;;0.40;99.90;;;;;;5027273;28;20155;-75
2023/01/25 03:47:34;;;;;;;34.53;14.75;;;0.40;99.90;;;;;;5042327;28;20034;-74
2023/01/25 03:50:01;;;;;;;31.35;14.27;;;0.50;99.90;;;;;;5026696;28;20036;-74
2023/01/25 03:52:27;;;;;;;34.38;15.63;;;0.60;99.90;;;;;;5028275;28;20033;-74
2023/01/25 03:54:52;;;;;;;33.53;15.35;;;0.50;99.90;;;;;;5009290;28;20120;-74
2023/01/25 03:57:18;;;;;;;37.45;15.82;;;0.60;99.90;;;;;;5042015;28;20504;-74
2023/01/25 03:59:44;;;;;;;36.88;15.27;;;0.60;99.90;;;;;;5024065;28;20021;-76
2023/01/25 04:02:11;;;;;;;36.03;14.57;;;0.60;99.90;;;;;;5024326;28;20025;-77
2023/01/25 04:04:37;;;;;;;39.08;15.93;;;0.60;99.90;;;;;;5057233;28;20033;-74
2023/01/25 04:07:03;;;;;;;34.95;15.65;;;0.60;99.90;;;;;;5029225;28;20033;-74
2023/01/25 04:09:28;;;;;;;33.67;14.45;;;0.60;99.90;;;;;;5028899;28;20052;-74
2023/01/25 04:11:54;;;;;;;37.25;14.95;;;0.70;99.90;;;;;;5026630;28;20136;-74
2023/01/25 04:14:21;;;;;;;33.70;15.20;;;0.70;99.90;;;;;;5025303;28;20037;-77
2023/01/25 04:16:46;;;;;;;37.42;15.70;;;0.70;99.90;;;;;;5039777;28;20068;-74
2023/01/25 04:19:13;;;;;;;40.53;17.65;;;0.70;99.90;;;;;;5026891;28;20438;-74
2023/01/25 04:21:39;;;;;;;34.75;15.40;;;0.70;99.90;;;;;;5028112;28;20105;-75
2023/01/25 04:24:05;;;;;;;35.42;15.10;;;0.70;99.90;;;;;;5024632;28;20113;-74
2023/01/25 04:26:30;;;;;;;31.77;14.25;;;0.70;99.90;;;;;;5042685;28;20037;-75
2023/01/25 04:28:56;;;;;;;29.40;13.57;;;0.60;99.90;;;;;;5028474;28;20128;-74
2023/01/25 04:31:22;;;;;;;28.63;13.13;;;0.60;99.90;;;;;;5028755;28;20029;-74
2023/01/25 04:33:47;;;;;;;26.88;13.75;;;0.60;99.90;;;;;;5027236;28;20029;-74
2023/01/25 04:36:13;;;;;;;26.48;13.82;;;0.60;99.90;;;;;;5058148;28;20116;-76
2023/01/25 04:38:41;;;;;;;29.70;13.80;;;0.60;99.90;;;;;;4997154;28;20041;-74
2023/01/25 04:41:06;;;;;;;29.30;14.48;;;0.60;99.90;;;;;;5032232;28;20053;-74
2023/01/25 04:43:32;;;;;;;28.92;14.73;;;0.60;99.90;;;;;;5028284;28;20627;-74
2023/01/25 04:46:01;;;;;;;28.23;14.32;;;0.60;99.90;;;;;;5029468;28;20453;-73
2023/01/25 04:48:27;;;;;;;26.90;14.07;;;0.60;99.90;;;;;;5028637;28;20076;-74
2023/01/25 04:50:52;;;;;;;22.90;12.73;;;0.60;99.90;;;;;;5028875;28;20493;-73
2023/01/25 04:53:18;;;;;;;23.45;13.02;;;0.60;99.90;;;;;;5025525;28;20670;-74
2023/01/25 04:55:46;;;;;;;26.60;13.27;;;0.50;99.90;;;;;;5012677;28;20029;-74
2023/01/25 04:58:12;;;;;;;26.58;13.60;;;0.40;99.90;;;;;;5044780;28;20034;-73
2023/01/25 05:00:37;;;;;;;22.25;13.35;;;0.40;99.90;;;;;;5028185;28;20098;-74
2023/01/25 05:03:03;;;;;;;26.38;13.45;;;0.40;99.90;;;;;;5027344;28;20036;-75
2023/01/25 05:05:32;;;;;;;22.63;12.43;;;0.40;99.90;;;;;;5045024;28;20040;-73
2023/01/25 05:07:58;;;;;;;25.20;12.70;;;0.40;99.90;;;;;;5045913;28;20026;-73
2023/01/25 05:10:23;;;;;;;26.58;14.15;;;0.50;99.90;;;;;;5027677;28;20041;-73
2023/01/25 05:12:49;;;;;;;22.92;13.73;;;0.50;99.90;;;;;;5029844;28;20025;-73
2023/01/25 05:15:15;;;;;;;28.63;14.98;;;0.50;99.90;;;;;;5027055;28;20444;-74
2023/01/25 05:17:40;;;;;;;24.50;13.80;;;0.50;99.90;;;;;;5038503;28;20036;-73
2023/01/25 05:20:07;;;;;;;28.38;14.40;;;0.50;99.90;;;;;;5036651;28;20044;-75
2023/01/25 05:22:32;;;;;;;29.33;15.32;;;0.50;99.90;;;;;;5037207;28;20033;-76
2023/01/25 05:25:01;;;;;;;26.95;14.75;;;0.50;99.90;;;;;;5024779;28;20033;-81
2023/01/25 05:27:27;;;;;;;25.25;15.18;;;0.50;99.90;;;;;;5025955;28;20033;-73
2023/01/25 05:29:52;;;;;;;27.58;15.88;;;0.40;99.90;;;;;;5043989;28;20041;-74
2023/01/25 05:32:22;;;;;;;31.75;16.80;;;0.40;99.90;;;;;;5034607;28;20105;-73
2023/01/25 05:34:48;;;;;;;29.40;16.52;;;0.40;99.90;;;;;;5052097;28;20410;-73
2023/01/25 05:37:16;;;;;;;33.17;16.63;;;0.40;99.90;;;;;;5027227;28;20526;-73
2023/01/25 05:39:42;;;;;;;28.60;16.33;;;0.40;99.90;;;;;;5027159;28;20402;-73
2023/01/25 05:42:11;;;;;;;30.60;16.05;;;0.40;99.90;;;;;;5046705;28;20033;-73
2023/01/25 05:44:37;;;;;;;29.85;15.65;;;0.30;99.90;;;;;;5026865;28;20025;-73
2023/01/25 05:47:03;;;;;;;29.20;15.75;;;0.30;99.90;;;;;;5028438;28;20568;-73
2023/01/25 05:49:28;;;;;;;27.60;14.60;;;0.40;99.90;;;;;;5026952;28;20132;-76
2023/01/25 05:51:54;;;;;;;30.10;15.60;;;0.40;99.90;;;;;;5026690;28;20025;-73
2023/01/25 05:54:20;;;;;;;26.13;13.95;;;0.40;99.90;;;;;;5028694;28;20056;-74
2023/01/25 05:56:48;;;;;;;32.40;16.13;;;0.40;99.90;;;;;;5027220;28;20044;-74
2023/01/25 05:59:14;;;;;;;29.63;15.52;;;0.40;99.90;;;;;;5026189;28;20029;-73
2023/01/25 06:01:40;;;;;;;27.02;14.43;;;0.40;99.90;;;;;;5019914;28;20064;-73
2023/01/25 06:04:06;;;;;;;28.08;14.15;;;0.40;99.90;;;;;;5026833;28;20044;-74
2023/01/25 06:06:32;;;;;;;25.80;13.82;;;0.40;99.90;;;;;;5006248;28;20918;-73
2023/01/25 06:08:57;;;;;;;29.40;14.05;;;0.40;99.90;;;;;;5008007;28;20029;-78
2023/01/25 06:11:23;;;;;;;28.88;14.55;;;0.40;99.90;;;;;;5023793;28;20029;-74
2023/01/25 06:16:38;;;;;;;27.88;14.63;;;0.40;99.90;;;;;;5040057;28;20060;-73
2023/01/25 06:19:05;;;;;;;24.63;13.57;;;0.40;99.90;;;;;;5028404;28;20120;-73
2023/01/25 06:21:31;;;;;;;26.60;14.63;;;0.40;99.90;;;;;;5047907;28;20033;-72
2023/01/25 06:23:57;;;;;;;29.38;14.30;;;0.40;99.90;;;;;;5049259;28;20032;-74
2023/01/25 06:26:22;;;;;;;23.38;12.73;;;0.40;99.90;;;;;;5035384;28;20033;-73
2023/01/25 06:28:48;;;;;;;26.45;14.25;;;0.40;99.90;;;;;;5037511;28;20060;-75
2023/01/25 06:31:17;;;;;;;25.33;14.32;;;0.40;99.90;;;;;;5035139;28;20112;-73
2023/01/25 06:33:48;;;;;;;25.10;13.10;;;0.40;99.90;;;;;;5014622;28;20033;-73
2023/01/25 06:36:15;;;;;;;22.63;12.60;;;0.40;99.90;;;;;;5032968;28;20037;-74
2023/01/25 06:38:41;;;;;;;26.70;13.20;;;0.40;99.90;;;;;;5039717;28;20026;-75
2023/01/25 06:41:10;;;;;;;24.92;13.75;;;0.30;99.90;;;;;;5038558;28;20064;-74
2023/01/25 06:43:36;;;;;;;25.58;13.65;;;0.30;99.90;;;;;;5031177;28;20030;-74
2023/01/25 06:46:05;;;;;;;26.63;13.60;;;0.30;99.90;;;;;;5044255;28;20295;-74
2023/01/25 06:48:31;;;;;;;26.88;12.43;;;0.30;99.90;;;;;;5038574;28;20036;-74
2023/01/25 06:51:06;;;;;;;23.75;13.40;;;0.30;99.90;;;;;;5054734;28;20027;-74
2023/01/25 06:53:35;;;;;;;26.08;13.57;;;0.30;99.90;;;;;;5068898;28;20021;-74
2023/01/25 06:59:42;;;;;;;27.30;13.95;;;0.30;99.90;;;;;;5037322;28;20095;-75
2023/01/25 07:02:13;;;;;;;25.38;13.50;;;0.30;99.90;;;;;;5024177;28;20080;-74
2023/01/25 07:04:39;;;;;;;28.77;14.52;;;0.20;99.90;;;;;;5006543;28;20033;-76
2023/01/25 07:07:07;;;;;;;28.40;13.75;;;0.20;99.90;;;;;;5024033;28;20043;-74
2023/01/25 07:09:34;;;;;;;30.30;15.02;;;0.20;99.90;;;;;;5042889;28;20037;-75
2023/01/25 07:12:00;;;;;;;26.85;13.55;;;0.20;99.90;;;;;;5013181;28;20029;-73
2023/01/25 07:14:27;;;;;;;27.70;14.18;;;0.20;99.90;;;;;;5044599;28;20037;-75
2023/01/25 07:16:53;;;;;;;26.92;13.70;;;0.20;99.90;;;;;;5030365;28;20037;-73
2023/01/25 07:19:18;;;;;;;29.85;14.27;;;0.20;99.90;;;;;;5026557;28;20032;-73
2023/01/25 07:21:45;;;;;;;25.73;14.52;;;0.30;99.90;;;;;;5020567;28;20537;-74
2023/01/25 07:24:14;;;;;;;27.58;14.85;;;0.30;99.90;;;;;;5056822;28;20041;-73
2023/01/25 07:26:40;;;;;;;24.73;13.43;;;0.30;99.90;;;;;;5011026;28;20038;-73
2023/01/25 07:29:12;;;;;;;29.35;15.52;;;0.30;99.90;;;;;;5022787;28;20045;-72
2023/01/25 07:31:40;;;;;;;25.63;14.40;;;0.30;99.90;;;;;;5015547;28;20021;-73
2023/01/25 07:34:09;;;;;;;30.60;15.88;;;0.30;99.90;;;;;;5037330;28;20117;-74
2023/01/25 07:36:34;;;;;;;28.40;15.10;;;0.30;99.90;;;;;;5026095;28;20037;-73
2023/01/25 07:39:00;;;;;;;29.95;15.05;;;0.30;99.90;;;;;;5024555;28;20037;-79
2023/01/25 07:41:27;;;;;;;27.58;14.70;;;0.20;99.90;;;;;;5022545;28;20025;-75
2023/01/25 07:43:55;;;;;;;28.15;15.73;;;0.30;99.90;;;;;;5020799;28;20029;-76
2023/01/25 07:46:22;;;;;;;30.65;15.82;;;0.30;99.90;;;;;;5009880;28;20029;-72
2023/01/25 07:48:50;;;;;;;27.92;16.08;;;0.30;99.90;;;;;;5027548;28;20045;-73
2023/01/25 07:51:22;;;;;;;35.30;16.13;;;0.30;99.90;;;;;;5059054;28;20048;-75
2023/01/25 07:53:51;;;;;;;28.30;15.43;;;0.30;99.90;;;;;;5025938;28;20105;-73
2023/01/25 07:56:18;;;;;;;31.15;16.88;;;0.30;99.90;;;;;;5026600;28;20555;-73
2023/01/25 07:58:46;;;;;;;31.33;15.90;;;0.20;99.90;;;;;;5025094;28;20030;-74
2023/01/25 08:01:14;;;;;;;34.15;16.70;;;0.30;99.90;;;;;;5022444;28;20025;-73
2023/01/25 08:03:40;;;;;;;32.33;16.67;;;0.30;99.90;;;;;;5027804;28;20116;-73
2023/01/25 08:06:07;;;;;;;30.98;16.83;;;0.30;99.90;;;;;;5029629;28;20035;-73
2023/01/25 08:08:35;;;;;;;30.30;15.48;;;0.30;99.90;;;;;;5030768;28;20133;-73
2023/01/25 08:11:09;;;;;;;32.72;16.42;;;0.30;99.90;;;;;;5030952;28;20087;-74
2023/01/25 08:13:35;;;;;;;32.60;16.48;;;0.20;99.90;;;;;;5032136;28;20025;-74
2023/01/25 08:16:01;;;;;;;33.08;16.80;;;0.30;99.90;;;;;;5029135;28;20152;-76
2023/01/25 08:18:27;;;;;;;31.35;17.20;;;0.30;99.90;;;;;;5033731;28;20029;-74
2023/01/25 08:20:52;;;;;;;32.55;17.88;;;0.20;99.90;;;;;;5044141;28;20051;-76
2023/01/25 08:23:19;;;;;;;32.28;16.38;;;0.30;99.90;;;;;;5027038;28;20132;-73
2023/01/25 08:25:48;;;;;;;33.78;17.15;;;0.30;99.90;;;;;;5030988;28;20033;-73
2023/01/25 08:28:14;;;;;;;34.45;17.40;;;0.30;99.90;;;;;;5048674;28;20083;-73
2023/01/25 08:30:39;;;;;;;30.67;16.02;;;0.30;99.90;;;;;;5044624;28;20381;-74
2023/01/25 08:33:05;;;;;;;31.00;16.92;;;0.30;99.90;;;;;;5045315;28;20519;-73
2023/01/25 08:35:31;;;;;;;34.63;17.10;;;0.30;99.90;;;;;;5029612;28;20036;-73
2023/01/25 08:37:57;;;;;;;32.70;16.30;;;0.30;99.90;;;;;;5030740;28;20108;-74
2023/01/25 08:40:23;;;;;;;33.72;16.25;;;0.40;99.90;;;;;;5029642;28;20037;-74
2023/01/25 08:42:48;;;;;;;31.05;16.17;;;0.30;99.90;;;;;;5030366;28;20033;-73
2023/01/25 08:45:14;;;;;;;33.05;17.23;;;0.30;99.90;;;;;;5031710;28;20051;-73
2023/01/25 08:47:40;;;;;;;29.55;15.50;;;0.30;99.90;;;;;;5028777;28;20108;-74
2023/01/25 08:50:06;;;;;;;33.38;16.55;;;0.40;99.90;;;;;;5047777;28;20041;-73
2023/01/25 08:52:32;;;;;;;31.95;17.15;;;0.30;99.90;;;;;;5034163;28;20196;-73
2023/01/25 08:54:58;;;;;;;30.30;16.10;;;0.40;99.90;;;;;;5052608;28;20520;-74
2023/01/25 08:57:24;;;;;;;36.72;19.20;;;0.40;99.90;;;;;;5036684;28;20026;-73
2023/01/25 08:59:49;;;;;;;35.30;18.42;;;0.30;99.90;;;;;;5029737;28;20060;-74
2023/01/25 09:02:15;;;;;;;31.60;16.92;;;0.30;99.90;;;;;;5033981;28;20564;-74
2023/01/25 09:04:41;;;;;;;33.10;17.17;;;0.40;99.90;;;;;;5027932;28;20037;-73
2023/01/25 09:07:07;;;;;;;34.60;17.77;;;0.40;99.90;;;;;;5030858;28;20567;-73
2023/01/25 09:09:32;;;;;;;37.03;18.65;;;0.40;99.90;;;;;;5031257;28;20033;-73
2023/01/25 09:11:58;;;;;;;36.83;18.20;;;0.40;99.90;;;;;;5044408;28;20046;-74
2023/01/25 09:14:24;;;;;;;37.15;16.98;;;0.30;99.90;;;;;;5027578;28;20033;-73
2023/01/25 09:16:49;;;;;;;36.38;18.08;;;0.30;99.90;;;;;;5032656;28;20034;-74
2023/01/25 09:19:15;;;;;;;34.72;18.38;;;0.30;99.90;;;;;;5029079;28;20025;-73
2023/01/25 09:21:41;;;;;;;37.05;18.27;;;0.40;99.90;;;;;;5029855;28;21244;-75
2023/01/25 09:24:06;;;;;;;42.30;18.70;;;0.40;99.90;;;;;;5028692;28;20494;-74
2023/01/25 09:26:35;;;;;;;34.42;18.50;;;0.30;99.90;;;;;;5029570;28;20030;-78
2023/01/25 09:29:01;;;;;;;39.95;19.77;;;0.30;99.90;;;;;;5029934;28;20501;-75
2023/01/25 09:31:28;;;;;;;41.03;19.60;;;0.30;99.90;;;;;;5028169;28;20082;-74
2023/01/25 09:33:53;;;;;;;42.63;20.38;;;0.30;99.90;;;;;;5028795;28;20037;-75
2023/01/25 09:36:20;;;;;;;34.55;17.60;;;0.20;99.90;;;;;;5026412;28;20040;-72
2023/01/25 09:38:46;;;;;;;40.63;19.27;;;0.30;99.90;;;;;;5031227;28;20025;-73
2023/01/25 09:41:21;;;;;;;37.67;19.10;;;0.30;99.90;;;;;;5025590;28;20461;-73
2023/01/25 09:44:05;;;;;;;37.38;18.60;;;0.40;99.90;;;;;;5044156;28;20048;-73
2023/01/25 09:46:47;;;;;;;38.92;18.85;;;0.30;99.90;;;;;;5048577;28;20040;-74
2023/01/25 09:49:41;;;;;;;41.92;19.13;;;0.30;99.90;;;;;;5045348;28;20037;-73
2023/01/25 09:52:21;;;;;;;43.53;20.52;;;0.30;99.90;;;;;;5040778;28;20029;-73
2023/01/25 09:54:47;;;;;;;39.55;19.85;;;0.40;99.90;;;;;;5029615;28;20025;-73
2023/01/25 09:57:36;;;;;;;39.65;19.83;;;0.30;99.90;;;;;;5029005;28;20026;-73
2023/01/25 10:00:18;;;;;;;39.97;19.80;;;0.40;99.90;;;;;;5046320;28;20033;-75
2023/01/25 10:03:15;;;;;;;44.72;21.45;;;0.40;99.90;;;;;;5027634;28;20037;-74
2023/01/25 10:05:47;;;;;;;46.70;21.88;;;0.30;99.90;;;;;;5017419;28;20036;-73
2023/01/25 10:08:35;;;;;;;45.25;22.35;;;0.30;99.90;;;;;;5028234;28;20041;-73
2023/01/25 10:11:20;;;;;;;46.45;21.83;;;0.30;99.90;;;;;;5041992;28;20497;-79
2023/01/25 10:13:45;;;;;;;49.13;23.10;;;0.40;99.90;;;;;;5025871;28;20034;-73
2023/01/25 10:16:27;;;;;;;52.58;24.20;;;0.30;99.90;;;;;;5031699;28;20153;-74
2023/01/25 10:19:14;;;;;;;53.60;25.15;;;0.30;99.90;;;;;;5029649;28;20060;-73
2023/01/25 10:22:04;;;;;;;49.25;24.35;;;0.30;99.90;;;;;;5025801;28;20033;-74
2023/01/25 10:25:05;;;;;;;48.75;22.98;;;0.40;99.90;;;;;;5027898;28;20059;-74
2023/01/25 10:27:47;;;;;;;49.85;24.30;;;0.30;99.90;;;;;;4986099;28;20470;-75
2023/01/25 10:30:27;;;;;;;55.03;25.88;;;0.30;99.90;;;;;;4985508;28;20523;-72
2023/01/25 10:32:57;;;;;;;56.42;25.20;;;0.30;99.90;;;;;;5002290;28;20061;-74
2023/01/25 10:35:29;;;;;;;54.13;25.98;;;0.40;99.90;;;;;;4972010;28;20138;-75
2023/01/25 10:37:58;;;;;;;57.85;25.27;;;0.40;99.90;;;;;;4991576;28;20026;-78
2023/01/25 10:40:30;;;;;;;54.00;25.55;;;0.30;99.90;;;;;;5006516;28;20038;-73
2023/01/25 10:43:04;;;;;;;53.55;26.15;;;0.30;99.90;;;;;;4987011;28;20486;-73
2023/01/25 10:45:31;;;;;;;52.20;24.55;;;0.30;99.90;;;;;;4999183;28;20487;-74
2023/01/25 10:48:02;;;;;;;53.42;24.45;;;0.30;99.90;;;;;;4986723;28;20034;-75
2023/01/25 10:50:48;;;;;;;51.17;24.50;;;0.30;99.90;;;;;;5002263;28;20575;-73
2023/01/25 10:53:32;;;;;;;53.47;24.88;;;0.30;99.90;;;;;;4983531;28;20050;-72
2023/01/25 10:56:16;;;;;;;53.90;24.75;;;0.30;99.90;;;;;;4985225;28;20109;-75
2023/01/25 10:58:50;;;;;;;54.78;25.83;;;0.30;99.90;;;;;;4991279;28;20572;-74
2023/01/25 11:01:34;;;;;;;54.80;25.88;;;0.30;99.90;;;;;;4980716;28;20065;-76
2023/01/25 11:04:01;;;;;;;53.88;25.48;;;0.30;99.90;;;;;;5020091;28;20512;-73
2023/01/25 11:06:34;;;;;;;51.85;24.73;;;0.30;99.90;;;;;;5027557;28;20117;-83
2023/01/25 11:09:20;;;;;;;56.03;25.92;;;0.30;99.90;;;;;;5026769;28;20087;-76
2023/01/25 11:12:12;;;;;;;53.53;25.35;;;0.40;99.90;;;;;;5027743;28;20033;-74
2023/01/25 11:14:38;;;;;;;49.65;25.15;;;0.40;99.90;;;;;;5042122;28;20425;-74
2023/01/25 11:17:05;;;;;;;48.45;23.73;;;0.30;99.90;;;;;;5027056;28;20033;-75
2023/01/25 11:19:35;;;;;;;48.63;23.95;;;0.30;99.90;;;;;;5029594;28;20434;-74
2023/01/25 11:22:19;;;;;;;56.35;25.25;;;0.30;99.90;;;;;;5029043;28;20021;-74
2023/01/25 11:24:45;;;;;;;54.00;24.55;;;0.30;99.90;;;;;;5026601;28;20408;-74
2023/01/25 11:27:23;;;;;;;58.40;26.33;;;0.30;99.90;;;;;;5027547;28;20025;-74
2023/01/25 11:30:04;;;;;;;54.42;25.27;;;0.30;99.90;;;;;;5025837;28;20392;-75
2023/01/25 11:32:30;;;;;;;53.83;24.48;;;0.30;99.90;;;;;;5026484;28;20041;-74
2023/01/25 11:34:56;;;;;;;55.35;25.45;;;0.30;99.90;;;;;;5028404;28;20028;-74
2023/01/25 11:37:57;;;;;;;50.38;24.00;;;0.40;99.90;;;;;;5042181;28;20033;-74
2023/01/25 11:40:55;;;;;;;50.47;23.83;;;0.40;99.90;;;;;;4989135;28;20124;-75
2023/01/25 11:43:59;;;;;;;49.60;22.42;;;0.40;99.90;;;;;;5017981;28;20513;-74
2023/01/25 11:46:49;;;;;;;54.42;24.38;;;0.50;99.90;;;;;;5017970;28;20102;-81
2023/01/25 11:49:34;;;;;;;49.35;23.25;;;0.50;99.90;;;;;;5012667;28;20037;-73
2023/01/25 11:52:29;;;;;;;47.03;23.13;;;0.50;99.90;;;;;;5012133;28;20093;-73
2023/01/25 11:55:18;;;;;;;43.72;21.70;;;0.50;99.90;;;;;;4997332;28;20041;-76
2023/01/25 11:58:25;;;;;;;45.72;22.40;;;0.40;99.90;;;;;;5006813;28;20114;-73
2023/01/25 12:01:07;;;;;;;46.13;22.48;;;0.40;99.90;;;;;;4994682;28;20041;-73
2023/01/25 12:03:45;;;;;;;43.38;22.15;;;0.40;99.90;;;;;;5025048;28;20138;-73
2023/01/25 12:06:35;;;;;;;42.95;22.05;;;0.30;99.90;;;;;;5001832;28;20427;-73
2023/01/25 12:09:19;;;;;;;44.60;21.67;;;0.40;99.90;;;;;;5010121;28;20350;-72
2023/01/25 12:12:00;;;;;;;43.97;21.20;;;0.40;99.90;;;;;;5039696;28;20033;-73
2023/01/25 12:14:38;;;;;;;47.13;21.38;;;0.30;99.90;;;;;;5037080;28;20034;-74
2023/01/25 12:17:16;;;;;;;41.17;19.30;;;0.40;99.90;;;;;;5026337;28;20053;-75
2023/01/25 12:19:59;;;;;;;43.80;21.23;;;0.40;99.90;;;;;;5028203;28;20468;-74
2023/01/25 12:22:44;;;;;;;41.65;20.55;;;0.40;99.90;;;;;;5043160;28;20022;-74
2023/01/25 12:25:15;;;;;;;39.75;18.65;;;0.40;99.90;;;;;;5025241;28;20029;-74
2023/01/25 12:28:08;;;;;;;44.42;20.80;;;0.40;99.90;;;;;;5023389;28;20036;-77
2023/01/25 12:31:03;;;;;;;40.08;20.70;;;0.40;99.90;;;;;;5057391;28;20101;-76
2023/01/25 12:33:55;;;;;;;39.80;18.75;;;0.40;99.90;;;;;;5026906;28;20462;-77
2023/01/25 12:36:33;;;;;;;41.35;19.50;;;0.40;99.90;;;;;;5048601;28;20052;-75
2023/01/25 12:39:06;;;;;;;40.13;18.98;;;0.40;99.90;;;;;;5032240;28;20040;-75
2023/01/25 12:41:51;;;;;;;41.30;18.98;;;0.40;99.90;;;;;;5024899;28;20036;-75
2023/01/25 12:44:29;;;;;;;40.10;19.27;;;0.50;99.90;;;;;;5027218;28;20029;-73
2023/01/25 12:46:54;;;;;;;44.13;20.33;;;0.40;99.90;;;;;;5027132;28;20440;-76
2023/01/25 12:50:03;;;;;;;39.85;20.17;;;0.90;99.90;;;;;;5031248;28;20033;-74
2023/01/25 12:52:35;;;;;;;39.92;20.27;;;0.60;99.90;;;;;;5061017;28;20503;-74
2023/01/25 12:55:06;;;;;;;42.50;20.25;;;0.60;99.90;;;;;;5012057;28;20037;-76
2023/01/25 12:57:51;;;;;;;40.05;19.73;;;0.50;99.90;;;;;;5028345;28;20024;-74
2023/01/25 13:00:35;;;;;;;40.85;19.08;;;0.50;99.90;;;;;;5028865;28;20442;-73